createdAt,value
2022-09-30T00:01:29.310Z,40.90
2022-09-30T00:03:57.657Z,42.50
2022-09-30T00:06:27.224Z,51.77
2022-09-30T00:08:54.462Z,53.70
2022-09-30T00:11:25.502Z,53.20
2022-09-30T00:13:55.602Z,53.90
2022-09-30T00:16:24.164Z,58.40
2022-09-30T00:18:51.638Z,52.77
2022-09-30T00:21:19.410Z,48.03
2022-09-30T00:23:46.496Z,49.07
2022-09-30T00:26:17.586Z,53.83
2022-09-30T00:28:46.125Z,55.80
2022-09-30T00:31:15.503Z,54.57
2022-09-30T00:33:43.594Z,55.30
2022-09-30T00:36:11.263Z,50.93
2022-09-30T00:38:38.398Z,51.73
2022-09-30T00:41:05.449Z,54.10
2022-09-30T00:43:39.260Z,43.90
2022-09-30T00:46:11.170Z,52.10
2022-09-30T00:48:39.522Z,55.47
2022-09-30T00:51:07.877Z,52.27
2022-09-30T00:53:45.306Z,59.03
2022-09-30T00:56:18.802Z,49.27
2022-09-30T00:58:56.927Z,54.13
2022-09-30T01:01:24.866Z,55.80
2022-09-30T01:03:59.709Z,52.97
2022-09-30T01:06:27.495Z,48.13
2022-09-30T01:08:55.383Z,50.27
2022-09-30T01:11:22.386Z,50.97
2022-09-30T01:13:54.264Z,52.93
2022-09-30T01:16:27.014Z,47.47
2022-09-30T01:19:14.666Z,43.87
2022-09-30T01:22:18.962Z,46.73
2022-09-30T01:25:11.133Z,45.23
2022-09-30T01:27:46.144Z,47.37
2022-09-30T01:30:32.296Z,45.10
2022-09-30T01:33:07.925Z,43.53
2022-09-30T01:35:41.735Z,38.00
2022-09-30T01:38:30.618Z,48.63
2022-09-30T01:41:06.106Z,42.03
2022-09-30T01:43:54.482Z,39.50
2022-09-30T01:46:34.068Z,92.63
2022-09-30T01:49:13.079Z,65.90
2022-09-30T01:51:54.303Z,63.20
2022-09-30T01:54:55.570Z,69.87
2022-09-30T01:57:38.876Z,58.60
2022-09-30T02:00:11.317Z,63.60
2022-09-30T02:02:50.452Z,60.27
2022-09-30T02:05:36.784Z,53.63
2022-09-30T02:08:05.889Z,58.40
2022-09-30T02:10:45.728Z,65.07
2022-09-30T02:13:20.250Z,57.90
2022-09-30T02:15:57.179Z,61.07
2022-09-30T02:18:47.139Z,84.93
2022-09-30T02:21:20.643Z,65.73
2022-09-30T02:23:52.470Z,84.33
2022-09-30T02:26:28.180Z,70.30
2022-09-30T02:29:21.402Z,95.87
2022-09-30T02:31:54.740Z,68.03
2022-09-30T02:34:54.717Z,62.37
2022-09-30T02:37:31.343Z,63.10
2022-09-30T02:40:05.397Z,70.17
2022-09-30T02:42:32.993Z,187.30
2022-09-30T02:45:08.600Z,64.17
2022-09-30T02:48:13.013Z,83.37
2022-09-30T02:50:54.618Z,80.23
2022-09-30T02:53:58.642Z,74.00
2022-09-30T02:56:38.768Z,66.07
2022-09-30T02:59:05.931Z,72.03
2022-09-30T03:01:33.249Z,71.30
2022-09-30T03:04:06.150Z,68.70
2022-09-30T03:06:35.538Z,63.13
2022-09-30T03:09:03.267Z,66.47
2022-09-30T03:11:31.500Z,67.33
2022-09-30T03:14:07.370Z,66.80
2022-09-30T03:16:55.867Z,77.03
2022-09-30T03:19:42.376Z,200.30
2022-09-30T03:22:26.158Z,183.57
2022-09-30T03:24:53.467Z,384.87
2022-09-30T03:27:47.006Z,334.70
2022-09-30T03:30:24.314Z,127.33
2022-09-30T03:33:10.278Z,124.53
2022-09-30T03:36:26.497Z,330.00
2022-09-30T03:39:06.304Z,126.93
2022-09-30T03:41:39.556Z,178.50
2022-09-30T03:44:17.341Z,162.23
2022-09-30T03:46:52.658Z,77.67
2022-09-30T03:49:26.736Z,107.83
2022-09-30T03:51:58.519Z,81.23
2022-09-30T03:54:26.410Z,62.63
2022-09-30T03:56:53.418Z,63.30
2022-09-30T03:59:25.686Z,81.23
2022-09-30T04:01:53.750Z,77.67
2022-09-30T04:04:21.324Z,70.07
2022-09-30T04:06:48.361Z,91.43
2022-09-30T04:09:15.724Z,81.83
2022-09-30T04:11:44.145Z,73.40
2022-09-30T04:14:11.155Z,65.60
2022-09-30T04:16:38.408Z,65.60
2022-09-30T04:19:05.487Z,62.87
2022-09-30T04:21:32.820Z,55.17
2022-09-30T04:24:00.011Z,73.13
2022-09-30T04:26:27.028Z,72.33
2022-09-30T04:28:54.968Z,83.73
2022-09-30T04:31:22.159Z,80.93
2022-09-30T04:33:49.155Z,66.90
2022-09-30T04:36:16.403Z,89.17
2022-09-30T04:38:43.908Z,96.63
2022-09-30T04:41:18.166Z,85.93
2022-09-30T04:43:46.943Z,96.47
2022-09-30T04:46:19.041Z,114.37
2022-09-30T04:48:47.373Z,80.43
2022-09-30T04:51:20.603Z,112.27
2022-09-30T04:53:49.219Z,107.50
2022-09-30T04:56:19.496Z,163.63
2022-09-30T04:58:46.865Z,110.53
2022-09-30T05:01:16.363Z,107.30
2022-09-30T05:03:43.946Z,92.33
2022-09-30T05:06:11.910Z,88.37
2022-09-30T05:08:44.733Z,97.27
2022-09-30T05:11:19.830Z,137.77
2022-09-30T05:13:48.129Z,138.37
2022-09-30T05:16:16.117Z,136.03
2022-09-30T05:18:46.375Z,124.77
2022-09-30T05:21:15.686Z,97.60
2022-09-30T05:23:42.755Z,98.27
2022-09-30T05:26:12.605Z,97.37
2022-09-30T05:28:41.920Z,88.23
2022-09-30T05:31:09.459Z,80.67
2022-09-30T05:33:36.528Z,76.60
2022-09-30T05:36:07.232Z,78.77
2022-09-30T05:38:34.802Z,122.63
2022-09-30T05:41:13.643Z,99.10
2022-09-30T05:43:42.697Z,95.93
2022-09-30T05:46:10.187Z,77.60
2022-09-30T05:48:37.238Z,140.30
2022-09-30T05:51:04.790Z,144.60
2022-09-30T05:53:32.453Z,130.47
2022-09-30T05:56:00.461Z,104.17
2022-09-30T05:58:27.683Z,120.93
2022-09-30T06:00:55.080Z,127.57
2022-09-30T06:03:22.109Z,90.53
2022-09-30T06:05:57.004Z,107.50
2022-09-30T06:08:24.770Z,87.87
2022-09-30T06:10:52.587Z,89.50
2022-09-30T06:13:21.406Z,83.63
2022-09-30T06:15:59.432Z,82.80
2022-09-30T06:18:28.005Z,128.80
2022-09-30T06:20:59.159Z,118.57
2022-09-30T06:23:26.473Z,111.27
2022-09-30T06:25:54.777Z,127.50
2022-09-30T06:28:23.882Z,123.23
2022-09-30T06:30:51.235Z,93.03
2022-09-30T06:33:18.562Z,111.87
2022-09-30T06:35:47.471Z,96.57
2022-09-30T06:38:16.014Z,89.77
2022-09-30T06:40:44.632Z,62.70
2022-09-30T06:43:11.934Z,74.03
2022-09-30T06:45:39.065Z,64.40
2022-09-30T06:48:08.870Z,56.40
2022-09-30T06:50:38.028Z,62.10
2022-09-30T06:53:07.836Z,75.33
2022-09-30T06:55:39.544Z,72.50
2022-09-30T06:58:11.329Z,56.63
2022-09-30T07:00:38.798Z,53.53
2022-09-30T07:03:10.016Z,57.87
2022-09-30T07:05:38.572Z,83.33
2022-09-30T07:08:05.995Z,53.70
2022-09-30T07:10:33.118Z,56.73
2022-09-30T07:13:00.373Z,61.47
2022-09-30T07:15:27.480Z,57.20
2022-09-30T07:17:56.778Z,53.67
2022-09-30T07:20:24.789Z,53.00
2022-09-30T07:22:52.007Z,56.50
2022-09-30T07:25:19.805Z,58.00
2022-09-30T07:27:47.238Z,54.03
2022-09-30T07:30:24.528Z,78.77
2022-09-30T07:32:54.197Z,56.33
2022-09-30T07:35:21.551Z,71.73
2022-09-30T07:37:50.429Z,69.90
2022-09-30T07:40:17.590Z,62.23
2022-09-30T07:42:45.974Z,61.73
2022-09-30T07:45:17.133Z,52.80
2022-09-30T07:47:44.334Z,66.47
2022-09-30T07:50:15.527Z,81.93
2022-09-30T07:52:42.865Z,64.20
2022-09-30T07:55:10.514Z,63.83
2022-09-30T07:57:37.862Z,61.50
2022-09-30T08:00:29.839Z,59.43
2022-09-30T08:02:52.390Z,56.43
2022-09-30T08:05:19.300Z,56.70
2022-09-30T08:07:46.399Z,55.87
2022-09-30T08:10:13.799Z,58.20
2022-09-30T08:12:40.752Z,52.23
2022-09-30T08:15:09.765Z,58.53
2022-09-30T08:17:37.226Z,65.17
2022-09-30T08:20:07.492Z,56.00
2022-09-30T08:22:36.559Z,54.57
2022-09-30T08:25:03.855Z,46.63
2022-09-30T08:27:31.045Z,54.47
2022-09-30T08:30:00.220Z,51.50
2022-09-30T08:32:31.712Z,60.30
2022-09-30T08:34:58.713Z,64.87
2022-09-30T08:37:25.801Z,77.80
2022-09-30T08:39:53.054Z,63.73
2022-09-30T08:42:57.670Z,51.23
2022-09-30T08:45:49.612Z,54.33
2022-09-30T08:48:52.411Z,47.97
2022-09-30T08:51:35.719Z,43.83
2022-09-30T08:54:06.839Z,46.90
2022-09-30T08:56:34.850Z,45.50
2022-09-30T08:59:06.091Z,41.57
2022-09-30T09:01:36.261Z,46.73
2022-09-30T09:04:05.441Z,41.30
2022-09-30T09:06:54.894Z,38.97
2022-09-30T09:09:29.888Z,35.83
2022-09-30T09:12:29.558Z,37.63
2022-09-30T09:15:16.553Z,31.03
2022-09-30T09:18:21.649Z,28.90
2022-09-30T09:20:58.660Z,30.40
2022-09-30T09:23:28.531Z,30.67
2022-09-30T09:25:56.005Z,28.88
2022-09-30T09:28:40.321Z,28.20
2022-09-30T09:31:14.655Z,29.00
2022-09-30T09:33:42.137Z,30.50
2022-09-30T09:36:31.276Z,28.23
2022-09-30T09:39:36.275Z,26.08
2022-09-30T09:42:21.420Z,27.23
2022-09-30T09:45:03.741Z,25.50
2022-09-30T09:47:31.320Z,28.63
2022-09-30T09:50:04.899Z,28.70
2022-09-30T09:53:11.198Z,27.00
2022-09-30T09:55:38.452Z,27.60
2022-09-30T09:58:11.257Z,23.98
2022-09-30T10:00:47.373Z,22.85
2022-09-30T10:03:20.588Z,22.53
2022-09-30T10:06:00.722Z,22.25
2022-09-30T10:08:29.168Z,27.95
2022-09-30T10:11:05.655Z,23.75
2022-09-30T10:13:43.379Z,22.52
2022-09-30T10:16:26.263Z,22.58
2022-09-30T10:18:53.929Z,19.52
2022-09-30T10:21:23.390Z,24.10
2022-09-30T10:23:50.492Z,19.60
2022-09-30T10:26:20.152Z,22.50
2022-09-30T10:28:54.461Z,20.77
2022-09-30T10:31:26.729Z,20.60
2022-09-30T10:34:10.656Z,23.90
2022-09-30T10:36:40.792Z,24.02
2022-09-30T10:39:29.239Z,21.92
2022-09-30T10:42:08.550Z,19.85
2022-09-30T10:44:53.257Z,18.95
2022-09-30T10:47:23.455Z,18.88
2022-09-30T10:49:53.736Z,23.88
2022-09-30T10:52:26.881Z,18.23
2022-09-30T10:54:54.060Z,16.95
2022-09-30T10:57:31.371Z,17.05
2022-09-30T11:00:07.356Z,16.67
2022-09-30T11:02:57.628Z,14.27
2022-09-30T11:05:31.749Z,19.77
2022-09-30T11:08:17.495Z,14.05
2022-09-30T11:10:51.509Z,12.93
2022-09-30T11:13:40.143Z,13.13
2022-09-30T11:16:35.792Z,14.88
2022-09-30T11:19:24.058Z,13.65
2022-09-30T11:21:57.959Z,13.38
2022-09-30T11:24:44.255Z,17.25
2022-09-30T11:27:23.663Z,13.63
2022-09-30T11:30:15.829Z,14.00
2022-09-30T11:32:54.374Z,13.77
2022-09-30T11:35:44.552Z,15.68
2022-09-30T11:38:44.765Z,13.48
2022-09-30T11:41:11.689Z,19.95
2022-09-30T11:43:56.855Z,18.90
2022-09-30T11:46:45.752Z,17.88
2022-09-30T11:49:37.671Z,16.77
2022-09-30T11:52:16.803Z,15.93
2022-09-30T11:55:15.129Z,17.45
2022-09-30T11:57:55.425Z,17.35
2022-09-30T12:00:22.900Z,17.80
2022-09-30T12:03:20.218Z,20.75
2022-09-30T12:05:57.255Z,14.52
2022-09-30T12:08:34.266Z,17.83
2022-09-30T12:11:10.707Z,17.63
2022-09-30T12:13:48.133Z,18.33
2022-09-30T12:16:20.954Z,18.33
2022-09-30T12:18:53.813Z,18.95
2022-09-30T12:21:33.185Z,18.92
2022-09-30T12:24:16.875Z,22.92
2022-09-30T12:26:46.082Z,21.27
2022-09-30T12:29:37.087Z,22.58
2022-09-30T12:32:16.742Z,22.73
2022-09-30T12:35:15.866Z,23.38
2022-09-30T12:37:57.291Z,24.07
2022-09-30T12:41:03.320Z,19.40
2022-09-30T12:43:49.779Z,19.27
2022-09-30T12:46:43.951Z,21.58
2022-09-30T12:49:17.907Z,22.98
2022-09-30T12:51:48.969Z,19.67
2022-09-30T12:54:26.136Z,21.70
2022-09-30T12:56:57.121Z,16.80
2022-09-30T12:59:28.349Z,21.98
2022-09-30T13:01:57.852Z,17.75
2022-09-30T13:04:34.545Z,21.27
2022-09-30T13:07:01.489Z,15.90
2022-09-30T13:09:35.200Z,12.52
2022-09-30T13:12:02.549Z,13.30
2022-09-30T13:14:43.513Z,15.35
2022-09-30T13:17:10.558Z,21.50
2022-09-30T13:19:42.992Z,13.70
2022-09-30T13:22:24.186Z,12.82
2022-09-30T13:24:58.292Z,13.87
2022-09-30T13:27:45.686Z,12.20
2022-09-30T13:30:15.890Z,17.57
2022-09-30T13:32:45.905Z,16.10
2022-09-30T13:35:34.681Z,17.07
2022-09-30T13:38:14.093Z,16.47
2022-09-30T13:41:07.240Z,18.73
2022-09-30T13:43:41.010Z,13.67
2022-09-30T13:46:32.844Z,12.03
2022-09-30T13:49:17.815Z,10.83
2022-09-30T13:51:45.795Z,12.25
2022-09-30T13:54:29.970Z,16.10
2022-09-30T13:56:58.357Z,13.77
2022-09-30T14:00:02.877Z,13.77
2022-09-30T14:03:03.994Z,16.13
2022-09-30T14:06:00.449Z,13.03
2022-09-30T14:08:48.862Z,11.40
2022-09-30T14:11:36.132Z,13.10
2022-09-30T14:14:37.272Z,11.57
2022-09-30T14:17:19.549Z,11.53
2022-09-30T14:19:57.880Z,12.13
2022-09-30T14:22:30.140Z,14.13
2022-09-30T14:24:58.090Z,13.73
2022-09-30T14:27:37.882Z,17.67
2022-09-30T14:30:19.850Z,16.55
2022-09-30T14:32:50.949Z,15.45
2022-09-30T14:35:55.554Z,17.40
2022-09-30T14:38:28.118Z,14.40
2022-09-30T14:41:08.006Z,17.42
2022-09-30T14:43:43.166Z,11.85
2022-09-30T14:46:43.398Z,9.30
2022-09-30T14:49:16.536Z,10.68
2022-09-30T14:51:49.113Z,9.73
2022-09-30T14:54:29.194Z,15.35
2022-09-30T14:56:59.182Z,18.42
2022-09-30T14:59:31.308Z,20.88
2022-09-30T15:02:22.271Z,13.20
2022-09-30T15:04:52.908Z,11.93
2022-09-30T15:07:20.630Z,13.30
2022-09-30T15:09:48.570Z,11.68
2022-09-30T15:12:15.848Z,12.25
2022-09-30T15:14:52.102Z,14.20
2022-09-30T15:17:27.296Z,11.50
2022-09-30T15:19:56.006Z,15.43
2022-09-30T15:22:26.385Z,35.13
2022-09-30T15:24:55.079Z,28.53
2022-09-30T15:27:30.545Z,25.27
2022-09-30T15:30:00.441Z,13.17
2022-09-30T15:32:36.821Z,12.67
2022-09-30T15:35:15.410Z,13.30
2022-09-30T15:37:43.608Z,14.67
2022-09-30T15:40:55.319Z,12.30
2022-09-30T15:43:38.253Z,15.00
2022-09-30T15:46:17.376Z,19.60
2022-09-30T15:48:45.342Z,17.73
2022-09-30T15:51:35.324Z,19.27
2022-09-30T15:54:25.295Z,26.07
2022-09-30T15:56:52.406Z,22.53
2022-09-30T15:59:19.716Z,29.30
2022-09-30T16:01:48.829Z,26.10
2022-09-30T16:04:16.205Z,24.40
2022-09-30T16:07:00.456Z,25.53
2022-09-30T16:09:39.492Z,23.70
2022-09-30T16:12:12.629Z,23.80
2022-09-30T16:14:50.140Z,25.20
2022-09-30T16:17:21.616Z,42.30
2022-09-30T16:20:00.456Z,34.63
2022-09-30T16:22:42.873Z,35.93
2022-09-30T16:25:21.354Z,38.53
2022-09-30T16:27:56.414Z,31.97
2022-09-30T16:30:23.642Z,34.93
2022-09-30T16:32:55.762Z,18.60
2022-09-30T16:35:24.921Z,19.70
2022-09-30T16:38:02.281Z,23.83
2022-09-30T16:40:31.063Z,27.80
2022-09-30T16:43:05.513Z,24.90
2022-09-30T16:45:35.024Z,27.83
2022-09-30T16:48:14.709Z,25.33
2022-09-30T16:50:47.895Z,50.80
2022-09-30T16:53:15.103Z,52.80
2022-09-30T16:55:42.975Z,34.93
2022-09-30T16:58:12.274Z,52.63
2022-09-30T17:00:44.482Z,47.20
2022-09-30T17:03:14.973Z,46.10
2022-09-30T17:05:44.205Z,70.43
2022-09-30T17:08:16.089Z,57.67
2022-09-30T17:10:46.329Z,56.07
2022-09-30T17:13:16.248Z,53.53
2022-09-30T17:15:48.097Z,66.67
2022-09-30T17:18:15.472Z,69.00
2022-09-30T17:20:45.267Z,95.13
2022-09-30T17:23:12.804Z,240.23
2022-09-30T17:25:41.682Z,202.50
2022-09-30T17:28:13.504Z,167.53
2022-09-30T17:30:43.022Z,382.27
2022-09-30T17:33:10.934Z,307.47
2022-09-30T17:35:38.977Z,229.87
2022-09-30T17:38:13.485Z,288.53
2022-09-30T17:40:59.380Z,184.13
2022-09-30T17:43:26.610Z,123.50
2022-09-30T17:45:58.793Z,88.87
2022-09-30T17:48:25.861Z,82.10
2022-09-30T17:50:54.812Z,39.47
2022-09-30T17:53:23.354Z,37.43
2022-09-30T17:56:09.283Z,36.77
2022-09-30T17:58:37.012Z,40.00
2022-09-30T18:01:08.194Z,55.90
2022-09-30T18:03:38.257Z,54.33
2022-09-30T18:06:06.337Z,70.50
2022-09-30T18:08:35.268Z,132.83
2022-09-30T18:11:02.890Z,170.30
2022-09-30T18:13:30.416Z,179.83
2022-09-30T18:16:02.533Z,202.73
2022-09-30T18:18:30.880Z,231.10
2022-09-30T18:21:04.084Z,203.10
2022-09-30T18:23:31.940Z,206.80
2022-09-30T18:26:00.012Z,175.57
2022-09-30T18:28:27.405Z,187.63
2022-09-30T18:30:57.614Z,161.20
2022-09-30T18:33:27.923Z,172.43
2022-09-30T18:35:57.170Z,171.43
2022-09-30T18:38:24.498Z,139.10
2022-09-30T18:40:57.817Z,141.17
2022-09-30T18:43:27.274Z,145.00
2022-09-30T18:45:57.254Z,136.60
2022-09-30T18:48:26.441Z,130.77
2022-09-30T18:50:54.659Z,133.17
2022-09-30T18:53:22.872Z,144.33
2022-09-30T18:55:50.742Z,131.93
2022-09-30T18:58:19.653Z,121.77
2022-09-30T19:00:47.888Z,139.77
2022-09-30T19:03:16.395Z,98.03
2022-09-30T19:05:45.382Z,87.53
2022-09-30T19:08:13.329Z,106.37
2022-09-30T19:10:42.233Z,89.57
2022-09-30T19:13:09.728Z,79.00
2022-09-30T19:15:38.899Z,102.50
2022-09-30T19:18:07.036Z,172.10
2022-09-30T19:20:38.265Z,72.27
2022-09-30T19:23:08.759Z,94.47
2022-09-30T19:25:36.435Z,100.77
2022-09-30T19:28:03.722Z,54.73
2022-09-30T19:30:31.649Z,66.53
2022-09-30T19:32:59.269Z,46.33
2022-09-30T19:35:38.916Z,61.33
2022-09-30T19:38:08.794Z,74.60
2022-09-30T19:40:37.516Z,72.10
2022-09-30T19:43:05.341Z,77.97
2022-09-30T19:45:33.030Z,51.60
2022-09-30T19:48:01.670Z,70.57
2022-09-30T19:50:30.046Z,43.77
2022-09-30T19:52:58.706Z,89.50
2022-09-30T19:55:26.614Z,140.30
2022-09-30T19:57:54.492Z,59.20
2022-09-30T20:00:22.650Z,48.80
2022-09-30T20:02:51.035Z,53.80
2022-09-30T20:05:18.585Z,62.20
2022-09-30T20:07:46.677Z,53.90
2022-09-30T20:10:14.206Z,38.50
2022-09-30T20:12:42.001Z,38.10
2022-09-30T20:15:29.262Z,38.33
2022-09-30T20:17:56.453Z,41.57
2022-09-30T20:20:36.660Z,40.10
2022-09-30T20:23:04.183Z,46.53
2022-09-30T20:25:32.248Z,43.20
2022-09-30T20:27:59.442Z,43.17
2022-09-30T20:30:30.166Z,42.60
2022-09-30T20:32:59.045Z,45.10
2022-09-30T20:35:26.929Z,46.30
2022-09-30T20:37:54.486Z,43.17
2022-09-30T20:40:21.786Z,45.23
2022-09-30T20:42:48.787Z,45.73
2022-09-30T20:45:18.132Z,44.57
2022-09-30T20:47:47.162Z,49.13
2022-09-30T20:50:14.312Z,48.70
2022-09-30T20:52:41.434Z,48.53
2022-09-30T20:55:09.505Z,46.40
2022-09-30T20:57:36.852Z,44.93
2022-09-30T21:00:04.599Z,48.03
2022-09-30T21:02:32.099Z,44.93
2022-09-30T21:04:59.707Z,47.27
2022-09-30T21:07:27.102Z,46.07
2022-09-30T21:09:54.633Z,51.70
2022-09-30T21:12:21.895Z,46.77
2022-09-30T21:14:48.971Z,47.83
2022-09-30T21:17:16.441Z,48.53
2022-09-30T21:19:43.719Z,48.43
2022-09-30T21:22:11.259Z,48.80
2022-09-30T21:24:38.665Z,50.20
2022-09-30T21:27:06.185Z,49.03
2022-09-30T21:29:33.475Z,49.43
2022-09-30T21:32:00.954Z,48.20
2022-09-30T21:34:28.133Z,51.00
2022-09-30T21:36:55.137Z,59.33
2022-09-30T21:39:22.370Z,51.07
2022-09-30T21:41:49.499Z,49.90
2022-09-30T21:44:16.897Z,49.03
2022-09-30T21:46:48.873Z,49.87
2022-09-30T21:49:21.886Z,47.53
2022-09-30T21:51:51.609Z,54.53
2022-09-30T21:54:19.291Z,56.10
2022-09-30T21:56:46.491Z,53.60
2022-09-30T21:59:13.816Z,50.27
2022-09-30T22:01:40.930Z,48.33
2022-09-30T22:04:08.654Z,50.23
2022-09-30T22:06:35.862Z,50.60
2022-09-30T22:09:03.761Z,47.33
2022-09-30T22:11:31.694Z,53.83
2022-09-30T22:14:00.058Z,50.17
2022-09-30T22:16:30.981Z,52.27
2022-09-30T22:19:00.850Z,51.67
2022-09-30T22:21:32.158Z,52.77
2022-09-30T22:24:04.219Z,49.00
2022-09-30T22:26:32.950Z,46.27
2022-09-30T22:29:10.964Z,51.80
2022-09-30T22:31:39.261Z,53.17
2022-09-30T22:34:26.090Z,52.00
2022-09-30T22:37:11.976Z,48.30
2022-09-30T22:39:39.169Z,54.23
2022-09-30T22:42:07.374Z,51.30
2022-09-30T22:44:35.821Z,54.77
2022-09-30T22:47:03.716Z,50.83
2022-09-30T22:49:34.651Z,56.07
2022-09-30T22:52:03.811Z,52.80
2022-09-30T22:54:31.172Z,54.20
2022-09-30T22:56:59.441Z,75.03
2022-09-30T22:59:27.721Z,63.60
2022-09-30T23:01:55.968Z,65.30
2022-09-30T23:04:26.518Z,56.80
2022-09-30T23:06:55.491Z,55.73
2022-09-30T23:09:23.644Z,54.53
2022-09-30T23:11:55.105Z,60.60
2022-09-30T23:14:22.547Z,52.47
2022-09-30T23:16:50.728Z,57.13
2022-09-30T23:19:18.346Z,55.40
2022-09-30T23:21:45.375Z,55.43
2022-09-30T23:24:12.833Z,59.00
2022-09-30T23:26:40.077Z,46.80
2022-09-30T23:29:10.693Z,49.80
2022-09-30T23:31:38.491Z,46.20
2022-09-30T23:34:05.932Z,43.17
2022-09-30T23:36:36.370Z,40.73
2022-09-30T23:39:19.397Z,43.40
2022-09-30T23:41:50.013Z,41.00
2022-09-30T23:44:20.577Z,42.67
2022-09-30T23:47:07.222Z,45.63
2022-09-30T23:49:35.469Z,47.40
2022-09-30T23:52:12.449Z,50.77
2022-09-30T23:54:41.533Z,44.07
2022-09-30T23:57:09.677Z,42.40
2022-09-30T23:59:37.676Z,38.93
